Terminal Aerodrome Forecast
Issued by NWS Lake Charles, LA

Home | Current Version | Previous Version | Text Only | Print | Product List | Glossary On
Versions: 1 2 3 4 5 6 7 8 9 10 11 12 13 14 15
000
FTUS44 KLCH 020700 AAA
TAFBPT
TAF AMD
KBPT 020714Z 0207/0306 34008KT 6SM BR BKN015
      TEMPO 0210/0212 P6SM NSW SCT015
     FM021200 33005KT P6SM VCSH FEW015 BKN050
      TEMPO 0220/0224 5SM TSRA BKN035CB BKN050=

USA.gov is the U.S. government's official web portal to all federal, state and local government web resources and services.